Search for the current weather situation

Metar

Metar
TNCA 140500Z 08013KT 9999 FEW017 28/25 Q1010 NOSIG
Decoded Metar

TAF

TAF
TNCA 140500Z 08013KT 9999 FEW017 28/25 Q1010 NOSIG
Decoded TAF
Top